Time;durP1;ratioP1;P1;durP2;ratioP2;P2;SDS_P1;SDS_P2;PMS_P1;PMS_P2;Temp;Humidity;BMP_temperature;BMP_pressure;BME280_temperature;BME280_humidity;BME280_pressure;Samples;Min_cycle;Max_cycle;Signal;HPM_P1;HPM_P2
2023/03/18 00:00:43;;;;;;;10.40;5.72;;;11.90;99.90;;;;;;5055648;28;20461;-86
2023/03/18 00:03:10;;;;;;;13.30;5.90;;;11.90;99.90;;;;;;5075101;28;20044;-86
2023/03/18 00:05:36;;;;;;;9.00;5.65;;;11.90;99.90;;;;;;5080673;28;20040;-87
2023/03/18 00:08:05;;;;;;;11.30;5.97;;;11.80;99.90;;;;;;5077367;28;20047;-87
2023/03/18 00:10:33;;;;;;;10.00;5.28;;;11.80;99.90;;;;;;5054114;28;20075;-86
2023/03/18 00:13:00;;;;;;;11.68;5.78;;;11.90;99.90;;;;;;5091408;28;20070;-87
2023/03/18 00:15:27;;;;;;;9.90;6.43;;;11.90;99.90;;;;;;5051165;28;20035;-86
2023/03/18 00:17:53;;;;;;;10.95;6.70;;;11.90;99.90;;;;;;5056927;28;20493;-86
2023/03/18 00:20:27;;;;;;;10.15;5.80;;;11.90;99.90;;;;;;5052738;28;20052;-87
2023/03/18 00:22:54;;;;;;;9.07;6.00;;;11.80;99.90;;;;;;5071942;28;20556;-87
2023/03/18 00:25:20;;;;;;;10.43;6.40;;;11.90;99.90;;;;;;5054541;28;20066;-86
2023/03/18 00:27:46;;;;;;;12.50;6.43;;;11.90;99.90;;;;;;5063941;28;20047;-87
2023/03/18 00:30:12;;;;;;;10.15;5.95;;;11.90;99.90;;;;;;5064930;28;20051;-86
2023/03/18 00:32:38;;;;;;;12.95;6.75;;;11.90;99.90;;;;;;5071222;28;20405;-86
2023/03/18 00:35:04;;;;;;;10.77;6.75;;;12.00;99.90;;;;;;5071145;28;20052;-87
2023/03/18 00:37:30;;;;;;;12.52;6.82;;;12.00;99.90;;;;;;5082072;28;20062;-87
2023/03/18 00:40:19;;;;;;;12.18;6.90;;;12.00;99.90;;;;;;5072328;28;20499;-86
2023/03/18 00:42:56;;;;;;;13.82;7.50;;;12.00;99.90;;;;;;5070841;28;20048;-86
2023/03/18 00:45:22;;;;;;;12.65;7.38;;;12.00;99.90;;;;;;5030692;28;20146;-87
2023/03/18 00:47:49;;;;;;;11.90;7.13;;;12.00;99.90;;;;;;5057230;28;20071;-87
2023/03/18 00:50:15;;;;;;;15.77;7.57;;;12.00;99.90;;;;;;5069955;28;20469;-87
2023/03/18 00:52:42;;;;;;;10.18;7.13;;;12.00;99.90;;;;;;5056688;28;20083;-85
2023/03/18 00:55:09;;;;;;;12.35;8.00;;;11.90;99.90;;;;;;5062108;28;20127;-87
2023/03/18 00:57:35;;;;;;;14.60;8.25;;;11.90;99.90;;;;;;5081900;28;20502;-86
2023/03/18 01:00:03;;;;;;;12.77;8.50;;;11.80;99.90;;;;;;5079844;28;20078;-87
2023/03/18 01:02:28;;;;;;;12.55;8.18;;;11.70;99.90;;;;;;5046215;28;20550;-86
2023/03/18 01:04:55;;;;;;;11.63;8.80;;;11.70;99.90;;;;;;5062140;28;20508;-87
2023/03/18 01:07:22;;;;;;;14.70;9.27;;;11.60;99.90;;;;;;5043496;28;20043;-86
2023/03/18 01:09:48;;;;;;;14.48;8.90;;;11.50;99.90;;;;;;5049570;28;20044;-86
2023/03/18 01:12:14;;;;;;;18.75;9.43;;;11.40;99.90;;;;;;5076991;28;20048;-87
2023/03/18 01:14:40;;;;;;;14.50;10.05;;;11.40;99.90;;;;;;5054567;28;20059;-86
2023/03/18 01:17:07;;;;;;;17.52;10.65;;;11.30;99.90;;;;;;5074000;28;20040;-87
2023/03/18 01:19:33;;;;;;;16.88;10.10;;;11.20;99.90;;;;;;5056182;28;20114;-87
2023/03/18 01:21:59;;;;;;;15.18;10.23;;;11.10;99.90;;;;;;5086480;28;20243;-87
2023/03/18 01:24:26;;;;;;;15.88;10.98;;;11.00;99.90;;;;;;5042115;28;20044;-87
2023/03/18 01:26:52;;;;;;;15.48;10.50;;;11.00;1.00;;;;;;5067417;28;20123;-86
2023/03/18 01:29:19;;;;;;;15.48;10.35;;;10.90;1.00;;;;;;5047921;28;20044;-86
2023/03/18 01:31:45;;;;;;;18.73;10.95;;;10.90;1.00;;;;;;5066706;28;20051;-87
2023/03/18 01:34:11;;;;;;;16.73;11.13;;;10.80;1.00;;;;;;5067598;28;20040;-86
2023/03/18 01:36:37;;;;;;;15.73;12.00;;;10.80;1.00;;;;;;5058739;28;20051;-86
2023/03/18 01:39:05;;;;;;;18.70;12.02;;;10.70;1.00;;;;;;5026007;28;20049;-86
2023/03/18 01:41:31;;;;;;;17.20;12.38;;;10.70;1.00;;;;;;5081978;28;20499;-86
2023/03/18 01:43:57;;;;;;;20.27;11.70;;;10.60;1.00;;;;;;5054634;28;20040;-86
2023/03/18 01:46:42;;;;;;;21.02;13.60;;;10.50;1.00;;;;;;5080467;28;20457;-87
2023/03/18 01:49:19;;;;;;;21.90;12.57;;;10.50;1.00;;;;;;5069318;28;20296;-87
2023/03/18 01:51:58;;;;;;;19.23;13.10;;;10.50;1.00;;;;;;5063794;28;20078;-87
2023/03/18 01:54:26;;;;;;;22.77;13.98;;;10.40;1.00;;;;;;5050610;28;20541;-87
2023/03/18 01:56:52;;;;;;;24.27;14.05;;;10.40;1.00;;;;;;5058635;28;20111;-86
2023/03/18 01:59:21;;;;;;;21.95;13.93;;;10.40;1.00;;;;;;5070179;28;20051;-86
2023/03/18 02:02:09;;;;;;;19.63;14.77;;;10.30;1.00;;;;;;5064586;28;20051;-86
2023/03/18 02:04:56;;;;;;;22.05;15.57;;;10.40;1.00;;;;;;5067290;28;20504;-86
2023/03/18 02:07:25;;;;;;;23.20;14.95;;;10.30;1.00;;;;;;5062626;28;20528;-86
2023/03/18 02:09:52;;;;;;;25.05;14.88;;;10.30;1.00;;;;;;5057310;28;20094;-86
2023/03/18 02:12:32;;;;;;;21.95;15.65;;;10.30;1.00;;;;;;5063217;28;20044;-87
2023/03/18 02:15:00;;;;;;;24.58;15.57;;;10.30;1.00;;;;;;5063354;28;20209;-85
2023/03/18 02:17:30;;;;;;;24.88;14.43;;;10.20;6.80;;;;;;5056039;28;20047;-86
2023/03/18 02:19:58;;;;;;;24.23;15.75;;;10.20;1.00;;;;;;5086567;28;20526;-86
2023/03/18 02:22:38;;;;;;;27.05;16.08;;;10.10;1.00;;;;;;5084029;28;20472;-85
2023/03/18 02:25:42;;;;;;;23.10;15.55;;;10.10;26.70;;;;;;5066921;28;20037;-86
2023/03/18 02:28:15;;;;;;;30.42;16.05;;;10.10;38.60;;;;;;5071794;28;20055;-86
2023/03/18 02:30:46;;;;;;;25.70;16.75;;;10.00;35.40;;;;;;5056879;28;20524;-87
2023/03/18 02:33:15;;;;;;;24.42;17.02;;;9.90;20.40;;;;;;5078933;28;20138;-87
2023/03/18 02:35:43;;;;;;;25.35;15.98;;;9.80;27.70;;;;;;5079806;28;20416;-86
2023/03/18 02:38:09;;;;;;;27.85;16.88;;;9.70;57.90;;;;;;5055800;28;20056;-86
2023/03/18 02:40:37;;;;;;;27.15;16.98;;;9.60;90.40;;;;;;5071504;28;20134;-86
2023/03/18 02:43:23;;;;;;;27.63;17.70;;;9.60;99.90;;;;;;5070624;28;20447;-86
2023/03/18 02:46:13;;;;;;;29.93;17.93;;;9.60;99.90;;;;;;5068589;28;20044;-87
2023/03/18 02:48:42;;;;;;;29.48;17.55;;;9.60;99.90;;;;;;5078784;28;20113;-87
2023/03/18 02:51:10;;;;;;;28.92;17.67;;;9.60;99.90;;;;;;5063298;28;20055;-86
2023/03/18 02:53:37;;;;;;;31.48;20.25;;;9.50;99.90;;;;;;5078246;28;20053;-86
2023/03/18 02:56:04;;;;;;;32.15;18.15;;;9.50;99.90;;;;;;5056952;28;20051;-87
2023/03/18 02:58:31;;;;;;;34.67;19.98;;;9.60;99.90;;;;;;5071133;28;20067;-86
2023/03/18 03:00:56;;;;;;;30.92;19.15;;;9.60;99.90;;;;;;5062295;28;20392;-87
2023/03/18 03:03:23;;;;;;;29.10;20.70;;;9.70;99.90;;;;;;5064116;28;20044;-87
2023/03/18 03:05:49;;;;;;;26.45;19.40;;;9.70;99.90;;;;;;5059184;28;20063;-87
2023/03/18 03:08:15;;;;;;;31.15;20.55;;;9.70;99.90;;;;;;5072041;28;20066;-86
2023/03/18 03:10:41;;;;;;;30.50;20.80;;;9.80;99.90;;;;;;5067796;28;20044;-87
2023/03/18 03:13:08;;;;;;;32.88;21.40;;;9.80;99.90;;;;;;5059695;28;20441;-87
2023/03/18 03:15:35;;;;;;;33.58;20.27;;;9.80;99.90;;;;;;5047112;28;20126;-87
2023/03/18 03:18:02;;;;;;;34.47;21.80;;;9.90;99.90;;;;;;5069522;28;20068;-86
2023/03/18 03:20:32;;;;;;;34.10;21.55;;;9.80;99.90;;;;;;5055756;28;20050;-87
2023/03/18 03:22:58;;;;;;;29.70;20.42;;;9.80;99.90;;;;;;5056287;28;20045;-87
2023/03/18 03:25:25;;;;;;;33.10;20.65;;;9.90;99.90;;;;;;5052307;28;20047;-88
2023/03/18 03:27:52;;;;;;;28.83;21.30;;;9.80;99.90;;;;;;5072708;28;20135;-87
2023/03/18 03:30:18;;;;;;;34.42;21.58;;;9.80;99.90;;;;;;5087851;28;20433;-87
2023/03/18 03:32:44;;;;;;;31.90;20.08;;;9.80;99.90;;;;;;5077892;28;20040;-86
2023/03/18 03:35:13;;;;;;;33.25;21.52;;;9.70;99.90;;;;;;5088834;28;20374;-87
2023/03/18 03:37:39;;;;;;;35.47;22.73;;;9.70;99.90;;;;;;5080091;28;20227;-86
2023/03/18 03:40:07;;;;;;;34.05;21.90;;;9.60;99.90;;;;;;5062605;28;20056;-85
2023/03/18 03:42:32;;;;;;;34.53;22.23;;;9.50;99.90;;;;;;5072896;28;20063;-85
2023/03/18 03:44:58;;;;;;;33.45;22.42;;;9.40;99.90;;;;;;5039381;28;20262;-86
2023/03/18 03:47:24;;;;;;;32.85;22.80;;;9.30;99.90;;;;;;5053653;28;20052;-85
2023/03/18 03:49:51;;;;;;;33.10;22.45;;;9.20;99.90;;;;;;5029934;28;20071;-86
2023/03/18 03:52:18;;;;;;;39.13;23.85;;;9.10;99.90;;;;;;5072682;28;20047;-87
2023/03/18 03:54:44;;;;;;;37.30;22.48;;;9.10;99.90;;;;;;5056347;28;20051;-87
2023/03/18 03:57:10;;;;;;;38.28;23.42;;;9.10;99.90;;;;;;5042714;28;20498;-87
2023/03/18 03:59:36;;;;;;;34.30;22.85;;;9.10;99.90;;;;;;5072142;28;20052;-86
2023/03/18 04:02:02;;;;;;;34.20;23.02;;;9.10;99.90;;;;;;5073025;28;20043;-86
2023/03/18 04:04:28;;;;;;;36.50;23.90;;;9.10;99.90;;;;;;5051756;28;20075;-85
2023/03/18 04:06:54;;;;;;;34.30;22.63;;;9.20;99.90;;;;;;5043547;28;20440;-86
2023/03/18 04:09:20;;;;;;;37.78;22.88;;;9.20;99.90;;;;;;5053986;28;20083;-86
2023/03/18 04:11:46;;;;;;;39.05;23.08;;;9.30;99.90;;;;;;5046185;28;20060;-86
2023/03/18 04:14:12;;;;;;;37.20;24.10;;;9.30;99.90;;;;;;5073113;28;20047;-86
2023/03/18 04:16:38;;;;;;;39.88;24.02;;;9.30;99.90;;;;;;5068854;28;20508;-86
2023/03/18 04:19:06;;;;;;;41.08;24.30;;;9.30;99.90;;;;;;5049338;28;20036;-86
2023/03/18 04:21:32;;;;;;;39.95;24.35;;;9.30;99.90;;;;;;5045709;28;20044;-86
2023/03/18 04:23:58;;;;;;;40.15;23.45;;;9.30;99.90;;;;;;5052214;28;20490;-86
2023/03/18 04:26:23;;;;;;;40.25;24.92;;;9.30;99.90;;;;;;5080709;28;20095;-86
2023/03/18 04:28:50;;;;;;;37.97;23.35;;;9.30;99.90;;;;;;5040700;28;20052;-85
2023/03/18 04:31:16;;;;;;;40.10;23.67;;;9.40;99.90;;;;;;5045133;28;20047;-86
2023/03/18 04:33:43;;;;;;;35.45;23.55;;;9.40;99.90;;;;;;5069329;28;20073;-85
2023/03/18 04:36:09;;;;;;;39.53;24.27;;;9.40;99.90;;;;;;5072818;28;20040;-85
2023/03/18 04:38:35;;;;;;;41.00;24.10;;;9.50;99.90;;;;;;5056651;28;20060;-85
2023/03/18 04:41:01;;;;;;;37.40;22.45;;;9.40;99.90;;;;;;5075417;28;20056;-86
2023/03/18 04:43:27;;;;;;;39.92;24.77;;;9.50;99.90;;;;;;5060173;28;20044;-87
2023/03/18 04:45:52;;;;;;;44.08;26.40;;;9.50;99.90;;;;;;5054336;28;20139;-85
2023/03/18 04:48:18;;;;;;;38.90;24.77;;;9.50;99.90;;;;;;5073452;28;20093;-86
2023/03/18 04:50:44;;;;;;;39.63;24.73;;;9.50;99.90;;;;;;5048829;28;20036;-85
2023/03/18 04:53:10;;;;;;;37.95;24.50;;;9.50;99.90;;;;;;5044583;28;20534;-86
2023/03/18 04:55:36;;;;;;;42.63;25.33;;;9.50;99.90;;;;;;5067302;28;20044;-87
2023/03/18 04:58:02;;;;;;;44.47;26.35;;;9.50;1.00;;;;;;5067635;28;20489;-85
2023/03/18 05:00:28;;;;;;;42.72;25.25;;;9.60;99.90;;;;;;5067695;28;20719;-86
2023/03/18 05:02:53;;;;;;;45.65;25.80;;;9.60;99.90;;;;;;5045164;28;20052;-85
2023/03/18 05:05:20;;;;;;;45.17;25.17;;;9.60;99.90;;;;;;5051358;28;20095;-86
2023/03/18 05:07:45;;;;;;;40.42;24.70;;;9.60;99.90;;;;;;5056960;28;20083;-85
2023/03/18 05:10:11;;;;;;;44.38;25.20;;;9.60;99.90;;;;;;5059846;28;20048;-86
2023/03/18 05:12:37;;;;;;;37.55;24.83;;;9.60;99.90;;;;;;5068791;28;20044;-86
2023/03/18 05:15:04;;;;;;;40.15;25.50;;;9.60;99.90;;;;;;5055498;28;20119;-86
2023/03/18 05:17:29;;;;;;;42.08;25.92;;;9.50;1.00;;;;;;5065671;28;20253;-86
2023/03/18 05:19:56;;;;;;;44.35;26.02;;;9.50;1.00;;;;;;5061896;28;20196;-86
2023/03/18 05:22:22;;;;;;;44.20;24.95;;;9.60;1.00;;;;;;5069495;28;20032;-86
2023/03/18 05:24:49;;;;;;;44.08;26.98;;;9.50;1.00;;;;;;5069338;28;20059;-86
2023/03/18 05:27:17;;;;;;;41.42;26.60;;;9.50;1.00;;;;;;5055931;28;20071;-86
2023/03/18 05:29:43;;;;;;;46.75;26.88;;;9.50;1.00;;;;;;5059389;28;20474;-85
2023/03/18 05:32:10;;;;;;;39.83;26.67;;;9.50;1.00;;;;;;5053555;28;20178;-86
2023/03/18 05:34:37;;;;;;;41.67;25.58;;;9.50;99.90;;;;;;5089938;28;20059;-87
2023/03/18 05:37:05;;;;;;;37.63;26.13;;;9.50;1.00;;;;;;5062054;28;20044;-84
2023/03/18 05:39:32;;;;;;;40.85;27.40;;;9.50;1.00;;;;;;5066285;28;20098;-85
2023/03/18 05:41:58;;;;;;;40.10;25.95;;;9.50;1.00;;;;;;5049661;28;20507;-85
2023/03/18 05:44:24;;;;;;;40.10;26.25;;;9.50;1.00;;;;;;5056301;28;20051;-86
2023/03/18 05:46:51;;;;;;;42.33;26.88;;;9.50;1.00;;;;;;5063390;28;20048;-85
2023/03/18 05:49:20;;;;;;;40.05;27.63;;;9.50;1.00;;;;;;5074719;28;20106;-85
2023/03/18 05:51:46;;;;;;;38.78;26.27;;;9.50;1.00;;;;;;5090000;28;20039;-86
2023/03/18 05:54:12;;;;;;;39.25;26.38;;;9.50;1.00;;;;;;5087875;28;20036;-85
2023/03/18 05:56:38;;;;;;;39.47;24.98;;;9.50;1.00;;;;;;5082193;28;20110;-86
2023/03/18 05:59:05;;;;;;;44.53;27.38;;;9.50;1.00;;;;;;5075344;28;20044;-85
2023/03/18 06:01:31;;;;;;;35.00;26.42;;;9.50;1.00;;;;;;5067269;28;20514;-86
2023/03/18 06:03:58;;;;;;;38.05;26.88;;;9.60;1.00;;;;;;5084764;28;20079;-85
2023/03/18 06:06:25;;;;;;;43.00;27.48;;;9.60;1.00;;;;;;5087363;28;20044;-85
2023/03/18 06:08:51;;;;;;;40.33;25.77;;;9.60;1.00;;;;;;5040744;28;20048;-86
2023/03/18 06:11:17;;;;;;;43.05;26.77;;;9.60;1.00;;;;;;5062108;28;20044;-86
2023/03/18 06:13:44;;;;;;;39.63;26.40;;;9.60;1.00;;;;;;5057050;28;20087;-86
2023/03/18 06:16:10;;;;;;;42.65;26.45;;;9.60;1.00;;;;;;5065939;28;20470;-86
2023/03/18 06:18:37;;;;;;;42.30;26.65;;;9.60;1.00;;;;;;5069233;28;20043;-86
2023/03/18 06:21:03;;;;;;;37.80;25.85;;;9.60;1.00;;;;;;5057995;28;20044;-86
2023/03/18 06:23:30;;;;;;;45.58;27.75;;;9.60;1.00;;;;;;5073650;28;20079;-86
2023/03/18 06:25:56;;;;;;;43.40;26.73;;;9.60;1.00;;;;;;5071605;28;20044;-85
2023/03/18 06:28:21;;;;;;;40.72;26.45;;;9.60;1.00;;;;;;5097431;28;20044;-85
2023/03/18 06:30:47;;;;;;;40.45;27.20;;;9.60;1.00;;;;;;5089698;28;20131;-85
2023/03/18 06:33:14;;;;;;;37.47;26.83;;;9.70;1.00;;;;;;5044483;28;20444;-87
2023/03/18 06:35:40;;;;;;;42.22;27.40;;;9.70;1.00;;;;;;5045143;28;20131;-85
2023/03/18 06:38:07;;;;;;;42.72;27.45;;;9.70;1.00;;;;;;5073480;28;20123;-85
2023/03/18 06:40:33;;;;;;;37.08;26.70;;;9.70;1.00;;;;;;5088919;28;20044;-84
2023/03/18 06:42:59;;;;;;;39.55;27.25;;;9.70;1.00;;;;;;5057074;28;20109;-86
2023/03/18 06:45:25;;;;;;;38.72;27.33;;;9.70;1.00;;;;;;5049452;28;20078;-87
2023/03/18 06:47:50;;;;;;;38.72;26.88;;;9.70;1.00;;;;;;5058774;28;20051;-87
2023/03/18 06:50:16;;;;;;;40.80;27.25;;;9.70;1.00;;;;;;5071435;28;20123;-85
2023/03/18 06:52:42;;;;;;;42.03;28.00;;;9.70;1.00;;;;;;5082631;28;20084;-86
2023/03/18 06:55:09;;;;;;;41.70;26.40;;;9.60;1.00;;;;;;5036994;28;20048;-86
2023/03/18 06:57:34;;;;;;;39.33;26.13;;;9.60;1.00;;;;;;5073959;28;20119;-86
2023/03/18 07:00:01;;;;;;;36.83;26.23;;;9.70;1.00;;;;;;5072567;28;20123;-85
2023/03/18 07:02:26;;;;;;;36.40;25.10;;;9.70;1.00;;;;;;5059871;28;20119;-83
2023/03/18 07:04:53;;;;;;;35.47;25.38;;;9.90;1.00;;;;;;5057755;28;20572;-84
2023/03/18 07:07:21;;;;;;;34.75;24.05;;;10.10;1.00;;;;;;5042206;28;20078;-84
2023/03/18 07:09:46;;;;;;;34.13;22.77;;;10.20;1.00;;;;;;5068445;28;20048;-85
2023/03/18 07:12:13;;;;;;;40.75;23.45;;;10.40;1.00;;;;;;5062280;28;20039;-84
2023/03/18 07:14:42;;;;;;;31.42;21.02;;;10.60;99.90;;;;;;5081269;28;20481;-87
2023/03/18 07:17:09;;;;;;;32.15;22.08;;;10.70;99.90;;;;;;5058142;28;20472;-84
2023/03/18 07:19:34;;;;;;;30.60;21.50;;;10.80;99.90;;;;;;5066724;28;20129;-84
2023/03/18 07:22:01;;;;;;;30.50;21.45;;;10.90;99.90;;;;;;5057033;28;20561;-84
2023/03/18 07:24:27;;;;;;;29.35;20.67;;;11.10;99.90;;;;;;5083969;28;20062;-84
2023/03/18 07:26:53;;;;;;;28.55;19.80;;;11.20;99.90;;;;;;5050435;28;20098;-88
2023/03/18 07:29:19;;;;;;;28.00;19.67;;;11.30;99.90;;;;;;5088503;28;20392;-84
2023/03/18 07:31:45;;;;;;;27.23;19.35;;;11.30;99.90;;;;;;5061727;28;20548;-83
2023/03/18 07:34:13;;;;;;;25.75;19.13;;;11.30;99.90;;;;;;5077976;28;20749;-83
2023/03/18 07:36:39;;;;;;;32.95;20.05;;;11.30;99.90;;;;;;5073759;28;20667;-83
2023/03/18 07:39:07;;;;;;;28.20;19.58;;;11.30;99.90;;;;;;5055461;28;20087;-85
2023/03/18 07:41:32;;;;;;;26.77;19.63;;;11.30;99.90;;;;;;5074971;28;20064;-86
2023/03/18 07:43:59;;;;;;;31.55;19.70;;;11.30;99.90;;;;;;5060109;28;20106;-82
2023/03/18 07:46:26;;;;;;;28.33;19.88;;;11.20;99.90;;;;;;5054281;28;20072;-85
2023/03/18 07:48:52;;;;;;;26.92;18.45;;;11.20;99.90;;;;;;5076342;28;20036;-86
2023/03/18 07:51:17;;;;;;;26.02;18.67;;;11.20;99.90;;;;;;5062686;28;20063;-83
2023/03/18 07:53:44;;;;;;;27.95;18.98;;;11.10;99.90;;;;;;5073204;28;20046;-86
2023/03/18 07:56:10;;;;;;;29.15;18.83;;;11.10;99.90;;;;;;5051033;28;20554;-87
2023/03/18 07:58:36;;;;;;;28.35;18.38;;;11.10;99.90;;;;;;5057881;28;20056;-90
2023/03/18 08:01:02;;;;;;;28.00;18.08;;;11.00;99.90;;;;;;5069254;28;20051;-90
2023/03/18 08:03:28;;;;;;;27.33;18.50;;;10.90;99.90;;;;;;5058842;28;20054;-92
2023/03/18 08:05:54;;;;;;;25.98;18.42;;;10.90;99.90;;;;;;5068994;28;20039;-92
2023/03/18 08:08:21;;;;;;;29.48;19.02;;;10.80;99.90;;;;;;5070596;28;20501;-91
2023/03/18 08:10:47;;;;;;;30.73;20.15;;;10.70;99.90;;;;;;5068188;28;20040;-90
2023/03/18 08:13:13;;;;;;;28.38;19.45;;;10.60;99.90;;;;;;5051869;28;20052;-89
2023/03/18 08:15:39;;;;;;;34.08;19.88;;;10.60;99.90;;;;;;5055510;28;20047;-91
2023/03/18 08:18:05;;;;;;;30.42;19.42;;;10.60;99.90;;;;;;5059969;28;20051;-88
2023/03/18 08:20:31;;;;;;;31.67;20.33;;;10.60;99.90;;;;;;5048526;28;20040;-90
2023/03/18 08:22:56;;;;;;;32.10;21.33;;;10.60;99.90;;;;;;5090122;28;20048;-91
2023/03/18 08:25:22;;;;;;;33.85;22.30;;;10.70;99.90;;;;;;5074617;28;20047;-88
2023/03/18 08:27:49;;;;;;;33.90;22.45;;;10.70;99.90;;;;;;5092988;28;20074;-89
2023/03/18 08:30:15;;;;;;;32.83;22.70;;;10.80;99.90;;;;;;5077567;28;20500;-92
2023/03/18 08:32:42;;;;;;;36.70;23.15;;;10.90;99.90;;;;;;5042686;28;20056;-91
2023/03/18 08:35:08;;;;;;;36.20;23.45;;;10.80;1.00;;;;;;5074873;28;20094;-89
2023/03/18 08:37:35;;;;;;;31.98;23.80;;;10.90;1.00;;;;;;5054606;28;20504;-89
2023/03/18 08:40:03;;;;;;;37.83;24.02;;;10.90;1.00;;;;;;5085791;28;20056;-86
2023/03/18 08:42:29;;;;;;;36.53;22.95;;;10.90;1.00;;;;;;5044179;28;20048;-90
2023/03/18 08:44:56;;;;;;;36.60;23.60;;;10.90;1.00;;;;;;5041482;28;20071;-89
2023/03/18 08:47:23;;;;;;;32.60;23.38;;;10.90;1.00;;;;;;5047905;28;20073;-89
2023/03/18 08:49:50;;;;;;;32.83;22.10;;;10.90;1.00;;;;;;5039133;28;20504;-90
2023/03/18 08:52:16;;;;;;;35.72;23.55;;;11.00;1.00;;;;;;5048680;28;20127;-91
2023/03/18 08:54:42;;;;;;;35.38;23.77;;;11.00;1.00;;;;;;5052852;28;20094;-88
2023/03/18 08:57:08;;;;;;;33.58;24.20;;;11.10;1.00;;;;;;5033235;28;20045;-88
2023/03/18 08:59:35;;;;;;;36.20;23.38;;;11.20;1.00;;;;;;5053322;28;20097;-93
2023/03/18 09:02:02;;;;;;;30.23;23.52;;;11.30;1.00;;;;;;5019092;28;20052;-90
2023/03/18 09:04:28;;;;;;;38.00;25.23;;;11.30;1.00;;;;;;5058179;28;20040;-90
2023/03/18 09:06:54;;;;;;;34.38;24.40;;;11.60;99.90;;;;;;5065891;28;20048;-89
2023/03/18 09:09:20;;;;;;;34.92;24.27;;;11.70;99.90;;;;;;5020214;28;20133;-89
2023/03/18 09:11:46;;;;;;;35.08;24.65;;;11.90;99.90;;;;;;5064482;28;20053;-89
2023/03/18 09:14:13;;;;;;;31.90;24.45;;;12.00;99.90;;;;;;5051423;28;20094;-89
2023/03/18 09:16:39;;;;;;;33.90;25.48;;;12.30;99.90;;;;;;5067050;28;20129;-90
2023/03/18 09:19:05;;;;;;;37.72;25.38;;;12.40;99.90;;;;;;5063610;28;20041;-90
2023/03/18 09:21:31;;;;;;;39.88;26.98;;;12.50;99.90;;;;;;5049132;28;21308;-90
2023/03/18 09:23:57;;;;;;;35.63;25.33;;;12.70;99.90;;;;;;5039570;28;20052;-89
2023/03/18 09:26:23;;;;;;;35.25;26.40;;;13.00;99.90;;;;;;5057839;28;20494;-89
2023/03/18 09:28:49;;;;;;;31.30;23.40;;;13.30;99.90;;;;;;5072662;28;20273;-90
2023/03/18 09:31:15;;;;;;;41.75;26.30;;;13.30;99.90;;;;;;5054761;28;20127;-90
2023/03/18 09:33:41;;;;;;;36.22;23.83;;;13.40;99.90;;;;;;5071465;28;20297;-90
2023/03/18 09:36:08;;;;;;;32.47;23.00;;;13.50;99.90;;;;;;5062005;28;20044;-89
2023/03/18 09:38:34;;;;;;;31.38;23.40;;;13.80;99.90;;;;;;5038191;28;20051;-88
2023/03/18 09:41:25;;;;;;;34.25;23.42;;;14.10;85.70;;;;;;5075713;28;20088;-87
2023/03/18 09:43:59;;;;;;;31.40;22.92;;;14.40;1.00;;;;;;5069738;28;20393;-88
2023/03/18 09:46:56;;;;;;;34.08;23.38;;;14.50;1.00;;;;;;5054175;28;20497;-88
2023/03/18 09:49:33;;;;;;;33.35;24.45;;;14.50;1.00;;;;;;5083355;28;20690;-89
2023/03/18 09:52:21;;;;;;;30.77;23.35;;;14.70;1.00;;;;;;5065549;28;20182;-89
2023/03/18 09:55:02;;;;;;;32.50;22.80;;;14.80;1.00;;;;;;5068901;28;20041;-88
2023/03/18 09:57:35;;;;;;;31.77;22.73;;;15.00;1.00;;;;;;5051859;28;20380;-88
2023/03/18 10:00:17;;;;;;;30.30;21.85;;;15.10;1.00;;;;;;5071410;28;20482;-88
2023/03/18 10:03:03;;;;;;;30.90;21.65;;;15.30;1.00;;;;;;5052129;28;20140;-88
2023/03/18 10:05:33;;;;;;;30.70;21.17;;;15.30;99.90;;;;;;5070141;28;20045;-89
2023/03/18 10:08:09;;;;;;;29.08;21.33;;;15.10;99.90;;;;;;5055375;28;20499;-88
2023/03/18 10:10:42;;;;;;;29.50;21.05;;;15.00;99.90;;;;;;5063921;28;20045;-88
2023/03/18 10:13:21;;;;;;;30.92;23.55;;;14.80;99.90;;;;;;5051412;28;20128;-87
2023/03/18 10:15:52;;;;;;;37.63;23.52;;;14.60;99.90;;;;;;5045614;28;20044;-88
2023/03/18 10:18:45;;;;;;;32.03;23.92;;;14.40;1.00;;;;;;5070665;28;20045;-90
2023/03/18 10:21:49;;;;;;;31.08;22.88;;;14.20;1.00;;;;;;5050593;28;20052;-90
2023/03/18 10:24:29;;;;;;;34.72;24.33;;;14.10;1.00;;;;;;5059765;28;20084;-89
2023/03/18 10:27:17;;;;;;;36.95;23.73;;;14.00;1.00;;;;;;5039380;28;20040;-91
2023/03/18 10:30:26;;;;;;;31.65;23.98;;;14.00;1.00;;;;;;5039407;28;20147;-89
2023/03/18 10:33:26;;;;;;;32.22;22.35;;;14.20;1.00;;;;;;5066223;28;21076;-91
2023/03/18 10:35:54;;;;;;;30.67;22.88;;;14.20;1.00;;;;;;5038401;28;20048;-92
2023/03/18 10:38:33;;;;;;;31.50;21.75;;;14.20;1.00;;;;;;5038456;28;20135;-86
2023/03/18 10:40:59;;;;;;;29.55;21.88;;;14.20;1.00;;;;;;5039313;28;20095;-88
2023/03/18 10:43:29;;;;;;;29.50;21.25;;;14.20;1.00;;;;;;5023948;28;20110;-90
2023/03/18 10:46:08;;;;;;;30.58;20.70;;;14.30;1.00;;;;;;5049536;28;20501;-87
2023/03/18 10:48:37;;;;;;;32.63;21.67;;;14.40;99.90;;;;;;5045935;28;20051;-93
2023/03/18 10:51:09;;;;;;;28.08;21.77;;;14.40;1.00;;;;;;5044174;28;20060;-88
2023/03/18 10:53:53;;;;;;;31.13;20.50;;;14.50;1.00;;;;;;5040017;28;20052;-90
2023/03/18 10:56:19;;;;;;;30.15;20.50;;;14.70;99.90;;;;;;5043745;28;20052;-87
2023/03/18 10:58:45;;;;;;;30.35;21.08;;;14.90;1.00;;;;;;5062385;28;20101;-88
2023/03/18 11:01:15;;;;;;;30.23;21.63;;;15.00;99.90;;;;;;5046727;28;20131;-89
2023/03/18 11:03:58;;;;;;;29.55;21.42;;;14.90;99.90;;;;;;5044928;28;20056;-89
2023/03/18 11:06:54;;;;;;;27.13;20.55;;;15.10;99.90;;;;;;5052431;28;20068;-88
2023/03/18 11:09:22;;;;;;;28.52;19.17;;;15.20;99.90;;;;;;5037965;28;20576;-88
2023/03/18 11:11:57;;;;;;;26.73;18.65;;;15.50;99.90;;;;;;5036107;28;21296;-89
2023/03/18 11:14:29;;;;;;;26.15;18.65;;;15.80;99.90;;;;;;5068866;28;20401;-87
2023/03/18 11:17:03;;;;;;;29.92;18.38;;;16.20;99.90;;;;;;5067929;28;20051;-89
2023/03/18 11:19:47;;;;;;;25.40;17.95;;;16.30;99.90;;;;;;5068542;28;20119;-87
2023/03/18 11:22:13;;;;;;;23.98;17.83;;;16.40;99.90;;;;;;5059531;28;20048;-89
2023/03/18 11:24:41;;;;;;;22.85;17.13;;;17.00;99.90;;;;;;5052366;28;20049;-88
2023/03/18 11:27:13;;;;;;;24.38;17.23;;;17.90;99.90;;;;;;5037439;28;20052;-87
2023/03/18 11:29:45;;;;;;;21.10;16.05;;;18.30;99.90;;;;;;5052392;28;20482;-90
2023/03/18 11:32:32;;;;;;;19.17;15.13;;;19.70;97.20;;;;;;5041765;28;20087;-89
2023/03/18 11:35:04;;;;;;;18.90;15.80;;;19.80;1.00;;;;;;5062961;28;20934;-90
2023/03/18 11:37:36;;;;;;;18.05;13.77;;;19.80;10.60;;;;;;5044152;28;20492;-89
2023/03/18 11:40:26;;;;;;;17.48;14.20;;;20.50;1.00;;;;;;5051177;28;20056;-88
2023/03/18 11:43:11;;;;;;;14.80;13.30;;;20.50;1.00;;;;;;5036744;28;20567;-89
2023/03/18 11:45:59;;;;;;;13.32;10.98;;;20.60;1.00;;;;;;5058157;28;20052;-88
2023/03/18 11:48:38;;;;;;;16.15;13.02;;;19.90;1.00;;;;;;5072710;28;20052;-87
2023/03/18 11:51:21;;;;;;;13.13;11.63;;;18.90;1.00;;;;;;5051524;28;20040;-89
2023/03/18 11:54:12;;;;;;;13.88;12.10;;;19.20;1.00;;;;;;5086026;28;20046;-89
2023/03/18 11:56:47;;;;;;;14.73;11.68;;;19.30;1.00;;;;;;5074817;28;20461;-90
2023/03/18 11:59:19;;;;;;;16.07;12.27;;;18.50;1.00;;;;;;5045927;28;20066;-87
2023/03/18 12:01:56;;;;;;;14.52;12.25;;;18.10;1.00;;;;;;5068590;28;20044;-88
2023/03/18 12:04:34;;;;;;;13.55;11.60;;;18.00;1.00;;;;;;5071928;28;20048;-90
2023/03/18 12:07:14;;;;;;;11.15;10.05;;;18.10;1.00;;;;;;5074747;28;20502;-92
2023/03/18 12:10:11;;;;;;;11.40;9.85;;;18.30;1.00;;;;;;5045649;28;20554;-90
2023/03/18 12:12:58;;;;;;;7.47;6.78;;;19.00;1.00;;;;;;5027886;28;20105;-88
2023/03/18 12:15:27;;;;;;;9.95;7.25;;;20.50;1.00;;;;;;5048543;28;20101;-88
2023/03/18 12:18:05;;;;;;;7.47;6.70;;;21.00;1.00;;;;;;5060690;28;20039;-89
2023/03/18 12:20:51;;;;;;;8.85;7.45;;;21.00;1.00;;;;;;5040798;28;20048;-94
2023/03/18 12:23:17;;;;;;;;;;;21.30;1.00;;;;;;5069304;28;20385;-91
2023/03/18 12:25:43;;;;;;;8.10;5.82;;;22.70;1.00;;;;;;5064379;28;19984;-89
2023/03/18 12:28:20;;;;;;;6.85;5.40;;;24.30;1.00;;;;;;5057793;28;20067;-93
2023/03/18 12:30:58;;;;;;;6.90;5.50;;;25.10;1.00;;;;;;5051637;28;20044;-91
2023/03/18 12:33:49;;;;;;;7.65;5.53;;;25.80;1.00;;;;;;5057631;28;20063;-90
2023/03/18 12:36:36;;;;;;;6.80;5.43;;;25.00;1.00;;;;;;5064045;28;20051;-92
2023/03/18 12:39:23;;;;;;;6.30;5.45;;;24.10;1.00;;;;;;5067634;28;20044;-90
2023/03/18 12:42:15;;;;;;;8.23;5.55;;;24.90;1.00;;;;;;5053418;28;20059;-92
2023/03/18 12:45:09;;;;;;;5.85;4.65;;;24.40;1.00;;;;;;5050038;28;20043;-94
2023/03/18 12:47:59;;;;;;;8.43;4.43;;;23.20;1.00;;;;;;5069405;28;20048;-89
2023/03/18 12:51:11;;;;;;;6.00;4.20;;;21.90;1.00;;;;;;5055262;28;20048;-90
2023/03/18 12:53:45;;;;;;;6.55;3.53;;;21.40;1.00;;;;;;5038137;28;20138;-90